createdAt,value
2022-12-31T00:01:33.815Z,100949.69
2022-12-31T00:04:02.456Z,100950.70
2022-12-31T00:06:33.135Z,100950.31
2022-12-31T00:09:04.822Z,100940.70
2022-12-31T00:11:35.687Z,100912.27
2022-12-31T00:14:04.144Z,100921.29
2022-12-31T00:16:37.268Z,100918.13
2022-12-31T00:19:08.117Z,100909.59
2022-12-31T00:21:36.821Z,100899.24
2022-12-31T00:24:06.515Z,100890.02
2022-12-31T00:26:36.561Z,100888.33
2022-12-31T00:29:05.883Z,100873.89
2022-12-31T00:31:37.940Z,100869.35
2022-12-31T00:34:06.717Z,100868.52
2022-12-31T00:36:37.722Z,100868.54
2022-12-31T00:39:08.512Z,100878.66
2022-12-31T00:41:37.649Z,100872.36
2022-12-31T00:44:06.201Z,100873.31
2022-12-31T00:49:03.119Z,100881.01
2022-12-31T00:51:31.600Z,100888.21
2022-12-31T00:54:00.417Z,100896.29
2022-12-31T00:56:30.615Z,100885.34
2022-12-31T00:59:00.435Z,100866.42
2022-12-31T01:01:31.876Z,100869.85
2022-12-31T01:04:03.929Z,100868.73
2022-12-31T01:06:32.620Z,100862.78
2022-12-31T01:09:01.091Z,100864.04
2022-12-31T01:11:29.688Z,100847.33
2022-12-31T01:14:05.011Z,100862.62
2022-12-31T01:16:51.022Z,100872.02
2022-12-31T01:19:26.542Z,100877.76
2022-12-31T01:21:56.068Z,100872.62
2022-12-31T01:24:24.553Z,100866.05
2022-12-31T01:26:53.316Z,100867.56
2022-12-31T01:29:21.791Z,100862.73
2022-12-31T01:31:50.266Z,100861.41
2022-12-31T01:34:19.082Z,100862.20
2022-12-31T01:36:47.551Z,100861.98
2022-12-31T01:39:15.943Z,100862.75
2022-12-31T01:41:46.459Z,100863.45
2022-12-31T01:44:23.632Z,100863.38
2022-12-31T01:46:56.543Z,100865.38
2022-12-31T01:49:28.436Z,100865.17
2022-12-31T01:52:08.303Z,100868.58
2022-12-31T01:54:42.447Z,100863.02
2022-12-31T01:57:12.333Z,100855.17
2022-12-31T01:59:41.511Z,100851.23
2022-12-31T02:02:10.480Z,100851.34
2022-12-31T02:04:39.487Z,100847.92
2022-12-31T02:07:09.565Z,100848.92
2022-12-31T02:09:40.289Z,100849.83
2022-12-31T02:12:10.213Z,100847.17
2022-12-31T02:14:44.854Z,100842.13
2022-12-31T02:17:35.407Z,100839.23
2022-12-31T02:20:15.584Z,100825.01
2022-12-31T02:23:05.586Z,100820.05
2022-12-31T02:25:51.918Z,100824.70
2022-12-31T02:31:34.932Z,100816.13
2022-12-31T02:34:08.654Z,100816.13
2022-12-31T02:36:40.915Z,100821.59
2022-12-31T02:39:11.933Z,100804.52
2022-12-31T02:41:52.610Z,100807.33
2022-12-31T02:44:29.709Z,100787.89
2022-12-31T02:47:07.402Z,100799.30
2022-12-31T02:49:42.708Z,100795.93
2022-12-31T02:52:22.904Z,100787.59
2022-12-31T02:55:02.036Z,100783.09
2022-12-31T02:57:40.688Z,100778.60
2022-12-31T03:00:31.575Z,100779.73
2022-12-31T03:03:02.099Z,100785.92
2022-12-31T03:05:34.852Z,100787.76
2022-12-31T03:08:03.334Z,100795.20
2022-12-31T03:10:31.719Z,100795.52
2022-12-31T03:13:01.131Z,100795.23
2022-12-31T03:15:34.139Z,100786.16
2022-12-31T03:18:05.659Z,100786.10
2022-12-31T03:20:58.704Z,100778.65
2022-12-31T03:23:33.624Z,100770.36
2022-12-31T03:26:04.155Z,100745.64
2022-12-31T03:28:32.364Z,100766.02
2022-12-31T03:31:03.053Z,100773.27
2022-12-31T03:33:39.154Z,100783.02
2022-12-31T03:36:11.023Z,100784.39
2022-12-31T03:38:40.042Z,100794.08
2022-12-31T03:41:11.165Z,100798.61
2022-12-31T03:43:39.413Z,100791.59
2022-12-31T03:46:07.650Z,100792.90
2022-12-31T03:48:35.871Z,100788.02
2022-12-31T03:51:06.403Z,100763.81
2022-12-31T03:53:35.784Z,100778.33
2022-12-31T03:56:04.157Z,100778.60
2022-12-31T03:58:32.434Z,100779.99
2022-12-31T04:01:00.760Z,100779.08
2022-12-31T04:03:29.026Z,100781.25
2022-12-31T04:05:57.178Z,100780.34
2022-12-31T04:08:25.566Z,100783.24
2022-12-31T04:10:53.795Z,100783.73
2022-12-31T04:13:21.927Z,100785.08
2022-12-31T04:15:52.039Z,100788.05
2022-12-31T04:18:20.445Z,100788.32
2022-12-31T04:20:48.766Z,100792.92
2022-12-31T04:23:17.015Z,100796.76
2022-12-31T04:25:45.143Z,100796.85
2022-12-31T04:28:13.333Z,100805.74
2022-12-31T04:30:41.651Z,100798.27
2022-12-31T04:33:09.797Z,100795.33
2022-12-31T04:35:37.947Z,100790.14
2022-12-31T04:38:06.718Z,100786.73
2022-12-31T04:40:34.825Z,100787.16
2022-12-31T04:43:02.991Z,100789.22
2022-12-31T04:45:31.333Z,100785.89
2022-12-31T04:47:59.604Z,100792.38
2022-12-31T04:50:28.386Z,100792.45
2022-12-31T04:52:56.534Z,100791.84
2022-12-31T04:55:24.770Z,100797.05
2022-12-31T04:57:52.907Z,100792.65
2022-12-31T05:00:21.118Z,100790.17
2022-12-31T05:02:49.468Z,100785.46
2022-12-31T05:05:17.695Z,100774.88
2022-12-31T05:07:45.833Z,100785.33
2022-12-31T05:10:14.621Z,100786.13
2022-12-31T05:12:42.698Z,100803.37
2022-12-31T05:15:11.491Z,100815.04
2022-12-31T05:17:39.730Z,100801.88
2022-12-31T05:20:08.310Z,100814.30
2022-12-31T05:22:36.422Z,100820.36
2022-12-31T05:25:04.999Z,100817.89
2022-12-31T05:27:34.046Z,100809.22
2022-12-31T05:30:02.250Z,100818.50
2022-12-31T05:32:30.536Z,100820.24
2022-12-31T05:34:59.872Z,100820.82
2022-12-31T05:37:29.839Z,100824.76
2022-12-31T05:39:58.369Z,100832.86
2022-12-31T05:42:26.618Z,100830.11
2022-12-31T05:44:55.455Z,100810.25
2022-12-31T05:47:23.939Z,100802.64
2022-12-31T05:49:52.378Z,100820.68
2022-12-31T05:52:21.370Z,100806.51
2022-12-31T05:54:49.586Z,100810.25
2022-12-31T05:57:17.755Z,100809.05
2022-12-31T05:59:45.920Z,100814.41
2022-12-31T06:02:14.252Z,100811.20
2022-12-31T06:04:42.482Z,100799.68
2022-12-31T06:07:10.760Z,100818.45
2022-12-31T06:09:39.029Z,100813.35
2022-12-31T06:12:07.939Z,100822.40
2022-12-31T06:14:39.555Z,100815.65
2022-12-31T06:17:10.698Z,100813.16
2022-12-31T06:19:39.156Z,100815.20
2022-12-31T06:22:07.409Z,100820.36
2022-12-31T06:24:35.556Z,100823.27
2022-12-31T06:27:03.890Z,100825.85
2022-12-31T06:29:32.047Z,100827.77
2022-12-31T06:32:00.219Z,100818.23
2022-12-31T06:34:28.475Z,100817.27
2022-12-31T06:36:56.606Z,100812.12
2022-12-31T06:39:25.073Z,100816.54
2022-12-31T06:41:53.513Z,100825.44
2022-12-31T06:44:22.757Z,100831.31
2022-12-31T06:46:51.088Z,100834.98
2022-12-31T06:49:19.346Z,100838.48
2022-12-31T06:51:47.935Z,100831.50
2022-12-31T06:54:16.277Z,100836.05
2022-12-31T06:56:44.704Z,100838.61
2022-12-31T06:59:24.232Z,100838.65
2022-12-31T07:02:05.614Z,100848.23
2022-12-31T07:05:06.715Z,100847.36
2022-12-31T07:07:38.411Z,100851.48
2022-12-31T07:10:44.746Z,100856.78
2022-12-31T07:13:34.659Z,100858.81
2022-12-31T07:16:20.838Z,100868.27
2022-12-31T07:19:03.001Z,100862.29
2022-12-31T07:21:36.122Z,100865.51
2022-12-31T07:24:07.202Z,100874.48
2022-12-31T07:27:15.658Z,100881.81
2022-12-31T07:30:01.888Z,100869.27
2022-12-31T07:32:39.079Z,100872.94
2022-12-31T07:35:23.946Z,100873.36
2022-12-31T07:38:00.558Z,100871.06
2022-12-31T07:40:35.659Z,100880.91
2022-12-31T07:43:26.150Z,100879.06
2022-12-31T07:46:26.377Z,100870.71
2022-12-31T07:48:54.757Z,100859.55
2022-12-31T07:51:23.138Z,100848.20
2022-12-31T07:53:51.453Z,100840.14
2022-12-31T07:56:19.630Z,100846.73
2022-12-31T07:59:12.815Z,100862.92
2022-12-31T08:02:19.102Z,100870.84
2022-12-31T08:04:53.173Z,100880.27
2022-12-31T08:07:25.693Z,100882.11
2022-12-31T08:10:34.437Z,100887.88
2022-12-31T08:13:05.849Z,100900.80
2022-12-31T08:15:38.249Z,100901.02
2022-12-31T08:18:08.324Z,100894.31
2022-12-31T08:20:52.288Z,100890.66
2022-12-31T08:23:28.644Z,100896.31
2022-12-31T08:26:06.266Z,100897.44
2022-12-31T08:28:55.077Z,100894.45
2022-12-31T08:31:49.853Z,100890.71
2022-12-31T08:34:39.785Z,100883.62
2022-12-31T08:37:13.830Z,100878.77
2022-12-31T08:39:48.570Z,100882.52
2022-12-31T08:42:31.798Z,100884.11
2022-12-31T08:45:25.979Z,100887.19
2022-12-31T08:48:07.139Z,100897.35
2022-12-31T08:50:35.841Z,100892.91
2022-12-31T08:53:05.353Z,100892.71
2022-12-31T08:55:34.005Z,100909.77
2022-12-31T08:58:08.704Z,100909.73
2022-12-31T09:00:38.867Z,100875.22
2022-12-31T09:03:25.599Z,100902.90
2022-12-31T09:06:06.628Z,100906.45
2022-12-31T09:09:23.112Z,100904.83
2022-12-31T09:12:06.974Z,100897.48
2022-12-31T09:14:47.614Z,100874.07
2022-12-31T09:17:39.759Z,100891.55
2022-12-31T09:20:15.351Z,100887.27
2022-12-31T09:22:43.901Z,100886.00
2022-12-31T09:25:17.854Z,100881.69
2022-12-31T09:27:58.372Z,100873.03
2022-12-31T09:30:29.510Z,100866.00
2022-12-31T09:33:32.884Z,100861.24
2022-12-31T09:36:30.984Z,100866.42
2022-12-31T09:39:26.160Z,100861.85
2022-12-31T09:42:19.000Z,100857.85
2022-12-31T09:45:06.034Z,100857.01
2022-12-31T09:48:08.788Z,100842.20
2022-12-31T09:51:06.306Z,100833.80
2022-12-31T09:54:13.060Z,100828.08
2022-12-31T09:57:10.720Z,100792.36
2022-12-31T09:59:50.023Z,100824.45
2022-12-31T10:02:27.639Z,100827.39
2022-12-31T10:05:15.090Z,100817.13
2022-12-31T10:08:08.315Z,100810.80
2022-12-31T10:11:03.356Z,100809.66
2022-12-31T10:13:40.990Z,100805.17
2022-12-31T10:16:36.180Z,100800.61
2022-12-31T10:19:13.211Z,100796.95
2022-12-31T10:21:44.193Z,100793.70
2022-12-31T10:24:20.520Z,100792.52
2022-12-31T10:27:14.349Z,100767.39
2022-12-31T10:30:13.513Z,100772.06
2022-12-31T10:33:05.096Z,100772.44
2022-12-31T10:35:59.705Z,100773.08
2022-12-31T10:38:51.340Z,100771.23
2022-12-31T10:41:34.896Z,100768.89
2022-12-31T10:44:40.466Z,100763.36
2022-12-31T10:47:36.880Z,100758.73
2022-12-31T10:53:33.571Z,100749.93
2022-12-31T10:56:35.874Z,100766.83
2022-12-31T10:59:28.861Z,100751.29
2022-12-31T11:02:38.413Z,100756.23
2022-12-31T11:05:29.900Z,100749.31
2022-12-31T11:08:40.202Z,100746.92
2022-12-31T11:11:28.637Z,100740.69
2022-12-31T11:14:21.505Z,100736.54
2022-12-31T11:17:16.466Z,100731.70
2022-12-31T11:20:03.895Z,100719.73
2022-12-31T11:22:56.220Z,100710.52
2022-12-31T11:25:40.335Z,100697.71
2022-12-31T11:28:35.901Z,100690.30
2022-12-31T11:31:42.408Z,100687.87
2022-12-31T11:34:43.265Z,100664.70
2022-12-31T11:37:35.263Z,100680.28
2022-12-31T11:40:12.310Z,100687.19
2022-12-31T11:42:59.392Z,100686.00
2022-12-31T11:46:01.941Z,100688.24
2022-12-31T11:48:48.639Z,100652.83
2022-12-31T11:51:26.023Z,100659.95
2022-12-31T11:54:12.700Z,100657.64
2022-12-31T11:56:44.361Z,100646.31
2022-12-31T11:59:19.270Z,100680.60
2022-12-31T12:02:13.857Z,100688.92
2022-12-31T12:04:43.192Z,100661.76
2022-12-31T12:07:15.803Z,100652.73
2022-12-31T12:09:45.623Z,100651.64
2022-12-31T12:12:14.249Z,100643.31
2022-12-31T12:14:47.072Z,100641.60
2022-12-31T12:17:22.196Z,100632.22
2022-12-31T12:19:55.137Z,100622.73
2022-12-31T12:22:27.468Z,100630.92
2022-12-31T12:25:02.053Z,100639.76
2022-12-31T12:27:32.568Z,100638.70
2022-12-31T12:30:20.225Z,100641.73
2022-12-31T12:33:04.809Z,100639.73
2022-12-31T12:35:35.243Z,100629.20
2022-12-31T12:38:13.843Z,100634.48
2022-12-31T12:40:42.382Z,100630.06
2022-12-31T12:43:32.640Z,100633.32
2022-12-31T12:46:31.574Z,100627.22
2022-12-31T12:49:00.487Z,100627.30
2022-12-31T12:52:16.038Z,100629.67
2022-12-31T12:55:12.308Z,100624.02
2022-12-31T12:58:06.254Z,100618.08
2022-12-31T13:00:40.879Z,100623.94
2022-12-31T13:03:26.554Z,100622.49
2022-12-31T13:06:09.936Z,100584.42
2022-12-31T13:08:41.030Z,100599.52
2022-12-31T13:11:26.506Z,100607.33
2022-12-31T13:14:17.212Z,100611.96
2022-12-31T13:17:04.337Z,100603.36
2022-12-31T13:20:09.921Z,100622.30
2022-12-31T13:22:40.569Z,100628.50
2022-12-31T13:25:18.156Z,100627.81
2022-12-31T13:27:51.739Z,100625.28
2022-12-31T13:30:25.441Z,100621.40
2022-12-31T13:32:59.662Z,100634.20
2022-12-31T13:35:30.843Z,100640.15
2022-12-31T13:38:06.068Z,100642.96
2022-12-31T13:40:55.623Z,100641.33
2022-12-31T13:44:00.929Z,100649.42
2022-12-31T13:46:48.576Z,100648.16
2022-12-31T13:49:34.344Z,100647.14
2022-12-31T13:52:18.430Z,100647.63
2022-12-31T13:54:49.519Z,100644.23
2022-12-31T13:57:48.403Z,100643.73
2022-12-31T14:00:30.545Z,100627.05
2022-12-31T14:03:14.348Z,100651.78
2022-12-31T14:06:01.327Z,100651.89
2022-12-31T14:08:29.950Z,100649.02
2022-12-31T14:11:14.369Z,100645.87
2022-12-31T14:14:26.041Z,100644.88
2022-12-31T14:17:17.802Z,100644.27
2022-12-31T14:20:01.202Z,100632.04
2022-12-31T14:22:52.229Z,100638.57
2022-12-31T14:25:34.348Z,100632.75
2022-12-31T14:28:07.205Z,100630.17
2022-12-31T14:30:39.019Z,100633.02
2022-12-31T14:33:38.930Z,100631.65
2022-12-31T14:36:25.983Z,100637.73
2022-12-31T14:39:06.654Z,100642.02
2022-12-31T14:41:52.379Z,100641.46
2022-12-31T14:44:26.443Z,100639.25
2022-12-31T14:47:15.883Z,100625.58
2022-12-31T14:49:47.213Z,100615.97
2022-12-31T14:52:32.172Z,100627.59
2022-12-31T14:55:22.169Z,100625.46
2022-12-31T15:00:52.614Z,100632.18
2022-12-31T15:03:44.724Z,100634.67
2022-12-31T15:06:19.838Z,100637.84
2022-12-31T15:09:15.915Z,100636.00
2022-12-31T15:11:56.018Z,100634.56
2022-12-31T15:14:37.471Z,100635.29
2022-12-31T15:17:51.034Z,100635.39
2022-12-31T15:20:38.064Z,100632.00
2022-12-31T15:23:19.685Z,100629.27
2022-12-31T15:25:51.927Z,100633.52
2022-12-31T15:28:36.467Z,100632.23
2022-12-31T15:31:18.807Z,100621.36
2022-12-31T15:34:01.754Z,100639.33
2022-12-31T15:36:32.948Z,100643.17
2022-12-31T15:39:12.894Z,100642.31
2022-12-31T15:42:27.279Z,100630.84
2022-12-31T15:44:49.763Z,100640.70
2022-12-31T15:47:35.615Z,100636.54
2022-12-31T15:50:13.696Z,100632.82
2022-12-31T15:52:46.743Z,100616.28
2022-12-31T15:55:25.364Z,100627.27
2022-12-31T15:57:58.640Z,100630.80
2022-12-31T16:00:38.453Z,100632.01
2022-12-31T16:03:21.602Z,100634.19
2022-12-31T16:05:51.631Z,100622.95
2022-12-31T16:08:22.894Z,100646.83
2022-12-31T16:10:54.370Z,100649.19
2022-12-31T16:13:25.491Z,100648.68
2022-12-31T16:16:00.599Z,100644.60
2022-12-31T16:18:44.254Z,100647.55
2022-12-31T16:21:33.015Z,100638.40
2022-12-31T16:24:21.924Z,100635.08
2022-12-31T16:26:53.528Z,100628.18
2022-12-31T16:29:24.363Z,100632.95
2022-12-31T16:31:54.045Z,100623.58
2022-12-31T16:34:25.367Z,100612.04
2022-12-31T16:37:02.715Z,100612.05
2022-12-31T16:39:36.099Z,100611.27
2022-12-31T16:42:21.534Z,100608.02
2022-12-31T16:44:55.752Z,100598.05
2022-12-31T16:47:33.872Z,100615.23
2022-12-31T16:50:13.561Z,100640.23
2022-12-31T16:52:45.035Z,100633.67
2022-12-31T16:55:24.592Z,100615.37
2022-12-31T16:57:59.806Z,100610.00
2022-12-31T17:00:29.255Z,100616.09
2022-12-31T17:03:07.654Z,100623.65
2022-12-31T17:05:54.370Z,100620.27
2022-12-31T17:08:50.131Z,100632.41
2022-12-31T17:11:25.432Z,100624.49
2022-12-31T17:14:05.653Z,100625.80
2022-12-31T17:16:41.235Z,100648.95
2022-12-31T17:19:25.907Z,100665.41
2022-12-31T17:21:54.356Z,100653.80
2022-12-31T17:24:23.853Z,100668.48
2022-12-31T17:26:52.931Z,100644.17
2022-12-31T17:29:26.433Z,100678.84
2022-12-31T17:32:01.283Z,100689.11
2022-12-31T17:34:32.160Z,100687.52
2022-12-31T17:37:14.357Z,100683.48
2022-12-31T17:39:49.431Z,100685.73
2022-12-31T17:42:37.340Z,100670.84
2022-12-31T17:45:18.316Z,100686.85
2022-12-31T17:47:52.611Z,100678.63
2022-12-31T17:50:23.783Z,100673.43
2022-12-31T17:53:11.241Z,100665.08
2022-12-31T17:55:42.272Z,100665.18
2022-12-31T17:58:22.469Z,100669.40
2022-12-31T18:00:55.019Z,100665.52
2022-12-31T18:03:23.525Z,100669.38
2022-12-31T18:05:52.155Z,100669.75
2022-12-31T18:08:20.654Z,100678.08
2022-12-31T18:10:49.537Z,100681.70
2022-12-31T18:13:22.579Z,100678.42
2022-12-31T18:15:51.746Z,100677.23
2022-12-31T18:18:28.754Z,100672.97
2022-12-31T18:21:00.236Z,100670.43
2022-12-31T18:23:34.602Z,100663.75
2022-12-31T18:26:03.974Z,100662.54
2022-12-31T18:28:32.405Z,100667.91
2022-12-31T18:31:00.860Z,100682.98
2022-12-31T18:33:29.348Z,100675.36
2022-12-31T18:36:08.941Z,100668.90
2022-12-31T18:38:39.429Z,100686.83
2022-12-31T18:41:31.704Z,100696.95
2022-12-31T18:44:00.041Z,100672.45
2022-12-31T18:46:29.491Z,100695.29
2022-12-31T18:48:57.924Z,100713.21
2022-12-31T18:51:31.740Z,100718.09
2022-12-31T18:54:02.100Z,100713.36
2022-12-31T18:56:31.709Z,100711.58
2022-12-31T18:59:00.423Z,100718.83
2022-12-31T19:01:40.667Z,100722.67
2022-12-31T19:04:19.944Z,100720.70
2022-12-31T19:06:51.441Z,100733.59
2022-12-31T19:09:43.899Z,100737.30
2022-12-31T19:12:13.354Z,100741.02
2022-12-31T19:14:42.322Z,100751.66
2022-12-31T19:19:38.043Z,100743.36
2022-12-31T19:22:06.477Z,100760.79
2022-12-31T19:24:34.828Z,100754.21
2022-12-31T19:27:03.245Z,100747.08
2022-12-31T19:29:31.956Z,100751.30
2022-12-31T19:32:02.481Z,100753.09
2022-12-31T19:34:31.304Z,100756.29
2022-12-31T19:36:59.537Z,100743.98
2022-12-31T19:39:27.957Z,100748.70
2022-12-31T19:41:59.062Z,100737.73
2022-12-31T19:44:27.949Z,100736.52
2022-12-31T19:46:56.307Z,100735.23
2022-12-31T19:49:24.636Z,100735.34
2022-12-31T19:51:53.095Z,100743.41
2022-12-31T19:54:21.384Z,100741.61
2022-12-31T19:56:49.837Z,100736.27
2022-12-31T19:59:18.150Z,100728.86
2022-12-31T20:01:46.503Z,100732.02
2022-12-31T20:04:14.930Z,100733.73
2022-12-31T20:06:43.308Z,100727.73
2022-12-31T20:09:12.733Z,100721.15
2022-12-31T20:11:41.201Z,100725.27
2022-12-31T20:14:09.536Z,100725.10
2022-12-31T20:16:37.840Z,100734.02
2022-12-31T20:19:06.301Z,100736.92
2022-12-31T20:21:34.662Z,100731.29
2022-12-31T20:24:03.080Z,100729.26
2022-12-31T20:26:31.432Z,100738.41
2022-12-31T20:28:59.731Z,100725.76
2022-12-31T20:31:28.442Z,100726.86
2022-12-31T20:33:56.759Z,100726.83
2022-12-31T20:36:25.925Z,100725.69
2022-12-31T20:38:54.225Z,100720.39
2022-12-31T20:41:23.076Z,100723.79
2022-12-31T20:43:52.041Z,100725.85
2022-12-31T20:46:32.927Z,100740.23
2022-12-31T20:49:02.913Z,100741.09
2022-12-31T20:51:34.143Z,100730.10
2022-12-31T20:54:08.797Z,100707.88
2022-12-31T20:56:38.773Z,100727.19
2022-12-31T20:59:09.940Z,100724.19
2022-12-31T21:02:11.557Z,100724.59
2022-12-31T21:04:27.847Z,100713.30
2022-12-31T21:06:56.307Z,100723.44
2022-12-31T21:09:25.091Z,100707.64
2022-12-31T21:12:25.567Z,100708.88
2022-12-31T21:14:53.853Z,100715.06
2022-12-31T21:17:22.499Z,100698.83
2022-12-31T21:19:51.423Z,100702.16
2022-12-31T21:22:24.267Z,100705.64
2022-12-31T21:24:52.959Z,100706.84
2022-12-31T21:27:21.666Z,100705.34
2022-12-31T21:30:17.154Z,100691.45
2022-12-31T21:32:39.097Z,100687.91
2022-12-31T21:35:41.294Z,100692.89
2022-12-31T21:38:04.872Z,100687.24
2022-12-31T21:40:33.529Z,100673.38
2022-12-31T21:43:02.028Z,100673.22
2022-12-31T21:45:30.417Z,100676.01
2022-12-31T21:48:20.010Z,100679.27
2022-12-31T21:50:50.966Z,100690.13
2022-12-31T21:53:25.401Z,100700.09
2022-12-31T21:56:08.638Z,100716.76
2022-12-31T21:58:39.813Z,100716.89
2022-12-31T22:01:50.714Z,100713.87
2022-12-31T22:04:59.825Z,100708.55
2022-12-31T22:07:07.555Z,100714.35
2022-12-31T22:09:36.153Z,100709.89
2022-12-31T22:12:04.789Z,100707.31
2022-12-31T22:14:33.131Z,100709.59
2022-12-31T22:17:01.938Z,100711.61
2022-12-31T22:19:30.509Z,100717.20
2022-12-31T22:21:59.047Z,100717.10
2022-12-31T22:24:27.509Z,100713.80
2022-12-31T22:26:57.056Z,100704.90
2022-12-31T22:29:26.624Z,100727.48
2022-12-31T22:32:00.891Z,100732.39
2022-12-31T22:34:29.898Z,100736.24
2022-12-31T22:37:09.017Z,100731.08
2022-12-31T22:39:47.448Z,100724.52
2022-12-31T22:42:15.903Z,100720.52
2022-12-31T22:44:44.263Z,100722.54
2022-12-31T22:47:12.941Z,100720.20
2022-12-31T22:49:41.709Z,100722.59
2022-12-31T22:52:10.287Z,100714.56
2022-12-31T22:54:38.679Z,100734.83
2022-12-31T22:57:07.102Z,100738.21
2022-12-31T22:59:36.090Z,100740.73
2022-12-31T23:02:04.404Z,100734.01
2022-12-31T23:04:33.205Z,100733.58
2022-12-31T23:07:01.891Z,100726.41
2022-12-31T23:09:49.538Z,100706.91
2022-12-31T23:12:18.271Z,100713.60
2022-12-31T23:15:05.245Z,100708.54
2022-12-31T23:17:52.273Z,100719.80
2022-12-31T23:20:42.723Z,100705.71
2022-12-31T23:23:16.569Z,100702.35
2022-12-31T23:25:51.016Z,100706.16
2022-12-31T23:28:24.449Z,100711.34
2022-12-31T23:30:52.987Z,100704.94
2022-12-31T23:33:23.953Z,100706.37
2022-12-31T23:36:02.925Z,100695.70
2022-12-31T23:38:31.515Z,100695.16
2022-12-31T23:41:00.867Z,100694.06
2022-12-31T23:43:29.519Z,100681.30
2022-12-31T23:46:01.884Z,100697.36
2022-12-31T23:48:30.421Z,100696.16
2022-12-31T23:50:58.845Z,100680.16
2022-12-31T23:53:27.067Z,100699.00
2022-12-31T23:55:55.737Z,100695.43
2022-12-31T23:58:25.297Z,100695.39
